CheckWX is a tool to help pilots better visualize weather data.  It is not intended as a substitute for an official pre-flight weather briefing.

04:10:13 UTC

RPLB METAR
Subic Bay International Airport
Olongapo City, Philippines
Current

1 hour ago

RPLB 190300Z 08013KT 9999 FEW020 31/21 Q1015 NOSIG RMK A2997
Observed
Jan-19 @ 03:00 UTC
Wind
  • 080° at 13 KTS
Visibility
10,000+ meters
Flight Rules
VFR
Cloud Levels
  • Few at 2,000' AGL
Temperature
31°C / 88°F
Dewpoint
21°C / 70°F
Heat Index
34°C / 93°F
Humidity
55%
Altimeter
29.97" Hg
Pressure
1014.92 hPa
Previous

2 hours ago

RPLB 190200Z 06008KT 020V090 9999 FEW020 SCT080 29/22 Q1016 NOSIG RMK A3000
Observed
Jan-19 @ 02:00 UTC
Wind
  • 060° at 8 KTS
Visibility
10,000+ meters
Flight Rules
VFR
Cloud Levels
  • Few at 2,000' AGL
  • Scattered at 8,000' AGL
Temperature
29°C / 84°F
Dewpoint
22°C / 72°F
Heat Index
32°C / 89°F
Humidity
66%
Altimeter
30" Hg
Pressure
1015.92 hPa
Previous

3 hours ago

RPLB 190100Z 03003KT 360V110 9999 FEW020 SCT080 27/21 Q1016 NOSIG RMK A3000
Observed
Jan-19 @ 01:00 UTC
Wind
  • 030° at 3 KTS
Visibility
10,000+ meters
Flight Rules
VFR
Cloud Levels
  • Few at 2,000' AGL
  • Scattered at 8,000' AGL
Temperature
27°C / 81°F
Dewpoint
21°C / 70°F
Heat Index
29°C / 85°F
Humidity
70%
Altimeter
30" Hg
Pressure
1015.92 hPa